Time;durP1;ratioP1;P1;durP2;ratioP2;P2;SDS_P1;SDS_P2;PMS_P1;PMS_P2;Temp;Humidity;BMP_temperature;BMP_pressure;BME280_temperature;BME280_humidity;BME280_pressure;Samples;Min_cycle;Max_cycle;Signal;HPM_P1;HPM_P2
2022/07/23 00:01:29;;;;;;;2.90;2.60;;;25.60;38.00;;;;;;5032316;28;20688;-45
2022/07/23 00:03:56;;;;;;;5.53;3.57;;;25.60;38.10;;;;;;5032466;28;20460;-45
2022/07/23 00:06:22;;;;;;;4.50;3.53;;;25.60;38.10;;;;;;5032267;28;20277;-45
2022/07/23 00:08:48;;;;;;;4.00;3.10;;;25.50;38.20;;;;;;5032142;28;20425;-45
2022/07/23 00:11:14;;;;;;;3.93;3.43;;;25.50;38.20;;;;;;5032354;28;20487;-45
2022/07/23 00:13:40;;;;;;;4.30;3.40;;;25.50;38.10;;;;;;5032062;28;20412;-45
2022/07/23 00:16:06;;;;;;;4.57;3.13;;;25.50;38.20;;;;;;5031792;28;20181;-45
2022/07/23 00:18:32;;;;;;;4.30;3.50;;;25.50;38.30;;;;;;5031993;28;20198;-45
2022/07/23 00:20:58;;;;;;;4.50;3.50;;;25.40;38.30;;;;;;5032089;28;20423;-45
2022/07/23 00:23:24;;;;;;;5.37;3.67;;;25.40;38.40;;;;;;5032029;28;20455;-45
2022/07/23 00:25:51;;;;;;;4.23;3.83;;;25.30;38.50;;;;;;5031728;28;20178;-44
2022/07/23 00:28:18;;;;;;;4.53;3.60;;;25.30;38.80;;;;;;5031863;28;20444;-45
2022/07/23 00:30:44;;;;;;;3.73;3.00;;;25.20;38.80;;;;;;5031954;28;20417;-45
2022/07/23 00:33:10;;;;;;;4.40;3.87;;;25.20;38.80;;;;;;5031987;28;20495;-44
2022/07/23 00:35:40;;;;;;;5.03;3.43;;;25.20;38.90;;;;;;5031755;28;20435;-45
2022/07/23 00:38:09;;;;;;;4.67;3.50;;;25.20;38.80;;;;;;5032061;28;20524;-44
2022/07/23 00:40:35;;;;;;;5.67;3.87;;;25.20;38.70;;;;;;5031961;28;20417;-45
2022/07/23 00:43:02;;;;;;;6.43;3.80;;;25.20;38.70;;;;;;5031727;28;20444;-46
2022/07/23 00:45:28;;;;;;;4.07;3.40;;;25.20;38.80;;;;;;5031731;28;20424;-46
2022/07/23 00:47:54;;;;;;;4.20;3.60;;;25.20;38.70;;;;;;5031562;28;20435;-46
2022/07/23 00:50:19;;;;;;;4.83;3.80;;;25.20;38.70;;;;;;5032005;28;20405;-45
2022/07/23 00:52:45;;;;;;;5.30;3.80;;;25.10;38.80;;;;;;5035202;28;20404;-45
2022/07/23 00:55:12;;;;;;;5.70;3.30;;;25.10;38.80;;;;;;5035879;28;20658;-45
2022/07/23 00:57:39;;;;;;;5.40;3.97;;;25.10;39.10;;;;;;5035349;28;20800;-46
2022/07/23 01:00:08;;;;;;;4.10;2.93;;;25.10;39.10;;;;;;5035763;28;20409;-45
2022/07/23 01:02:34;;;;;;;4.30;3.47;;;25.10;39.20;;;;;;5018174;28;20434;-46
2022/07/23 01:05:00;;;;;;;4.03;3.60;;;25.10;39.20;;;;;;5035495;28;20397;-44
2022/07/23 01:07:26;;;;;;;4.67;4.17;;;25.10;39.40;;;;;;5035136;28;20792;-46
2022/07/23 01:09:52;;;;;;;4.57;3.17;;;25.10;39.30;;;;;;5035402;28;20819;-45
2022/07/23 01:12:19;;;;;;;3.63;2.67;;;25.10;39.50;;;;;;5035316;28;20413;-46
2022/07/23 01:14:44;;;;;;;3.70;2.80;;;25.10;39.70;;;;;;5035525;28;20443;-46
2022/07/23 01:17:10;;;;;;;5.00;3.37;;;25.00;39.80;;;;;;5034933;28;20440;-46
2022/07/23 01:19:36;;;;;;;4.40;4.00;;;25.00;39.90;;;;;;5035320;28;20261;-46
2022/07/23 01:22:03;;;;;;;2.90;2.60;;;25.00;40.00;;;;;;5035139;28;20626;-45
2022/07/23 01:24:29;;;;;;;4.10;3.30;;;25.10;39.90;;;;;;5035124;28;20194;-45
2022/07/23 01:26:55;;;;;;;6.77;3.60;;;25.10;40.20;;;;;;5034722;28;20974;-45
2022/07/23 01:29:21;;;;;;;4.50;3.43;;;25.10;40.20;;;;;;5035177;28;20486;-45
2022/07/23 01:31:47;;;;;;;3.83;3.33;;;25.10;40.20;;;;;;5035116;28;20885;-46
2022/07/23 01:34:14;;;;;;;3.70;3.33;;;25.10;40.00;;;;;;5035004;28;20829;-45
2022/07/23 01:36:40;;;;;;;4.70;4.10;;;25.10;40.10;;;;;;5034530;28;20462;-45
2022/07/23 01:39:07;;;;;;;3.50;3.00;;;25.10;40.30;;;;;;5035151;28;20487;-45
2022/07/23 01:41:33;;;;;;;4.60;3.50;;;25.10;40.20;;;;;;5034824;28;20405;-46
2022/07/23 01:43:59;;;;;;;3.80;3.50;;;25.00;40.30;;;;;;5034727;28;20464;-46
2022/07/23 01:46:25;;;;;;;4.33;3.67;;;25.00;40.60;;;;;;5034461;28;20421;-46
2022/07/23 01:48:50;;;;;;;4.20;3.47;;;25.00;40.60;;;;;;5034684;28;20440;-44
2022/07/23 01:51:16;;;;;;;4.17;3.60;;;25.00;40.50;;;;;;5034602;28;20184;-44
2022/07/23 01:53:42;;;;;;;4.50;3.80;;;25.00;40.60;;;;;;5034660;28;20974;-45
2022/07/23 01:56:08;;;;;;;4.23;3.60;;;24.90;40.80;;;;;;5034288;28;20425;-45
2022/07/23 01:58:34;;;;;;;4.50;3.60;;;24.90;41.10;;;;;;5034394;28;20424;-45
2022/07/23 02:01:00;;;;;;;3.90;3.40;;;24.90;40.90;;;;;;5034501;28;20220;-46
2022/07/23 02:03:26;;;;;;;3.53;2.90;;;24.90;41.00;;;;;;5033965;28;20190;-46
2022/07/23 02:05:52;;;;;;;5.07;4.03;;;24.90;40.90;;;;;;5034115;28;20443;-45
2022/07/23 02:08:18;;;;;;;4.03;3.63;;;24.90;41.10;;;;;;5034327;28;20944;-45
2022/07/23 02:10:45;;;;;;;4.33;3.93;;;24.90;40.90;;;;;;5034365;28;20407;-45
2022/07/23 02:13:11;;;;;;;4.03;3.63;;;24.90;40.90;;;;;;5034434;28;20186;-44
2022/07/23 02:15:37;;;;;;;4.30;3.73;;;24.90;41.30;;;;;;5016232;28;20441;-44
2022/07/23 02:18:03;;;;;;;4.50;3.23;;;24.80;41.50;;;;;;5034070;28;20452;-46
2022/07/23 02:20:29;;;;;;;3.97;3.37;;;24.80;41.40;;;;;;5034305;28;20463;-44
2022/07/23 02:22:55;;;;;;;3.77;3.30;;;24.80;41.50;;;;;;5034185;28;20457;-45
2022/07/23 02:25:21;;;;;;;4.80;4.13;;;24.80;41.30;;;;;;5034148;28;20474;-45
2022/07/23 02:27:46;;;;;;;6.40;3.40;;;24.80;41.40;;;;;;5033572;28;20352;-45
2022/07/23 02:30:12;;;;;;;5.33;4.40;;;24.80;41.50;;;;;;5034082;28;20166;-45
2022/07/23 02:32:39;;;;;;;5.30;3.50;;;24.80;41.50;;;;;;5033863;28;20663;-46
2022/07/23 02:35:05;;;;;;;4.43;3.80;;;24.70;41.50;;;;;;5033965;28;20499;-45
2022/07/23 02:37:32;;;;;;;4.37;3.60;;;24.70;41.70;;;;;;5033497;28;20928;-45
2022/07/23 02:39:57;;;;;;;5.90;4.30;;;24.70;41.70;;;;;;5033746;28;20527;-45
2022/07/23 02:42:23;;;;;;;3.90;3.50;;;24.70;41.80;;;;;;5033604;28;20496;-44
2022/07/23 02:44:50;;;;;;;4.23;3.60;;;24.70;41.70;;;;;;5033626;28;20583;-45
2022/07/23 02:47:16;;;;;;;5.43;3.27;;;24.70;41.70;;;;;;5033333;28;20193;-46
2022/07/23 02:49:42;;;;;;;5.60;3.67;;;24.70;41.70;;;;;;5033450;28;20470;-45
2022/07/23 02:52:10;;;;;;;5.83;3.90;;;24.80;41.60;;;;;;5033463;28;20409;-45
2022/07/23 02:54:36;;;;;;;4.10;3.57;;;24.70;41.60;;;;;;5033616;28;20178;-45
2022/07/23 02:57:03;;;;;;;5.80;4.47;;;24.70;41.50;;;;;;5033262;28;20464;-46
2022/07/23 02:59:28;;;;;;;3.50;3.20;;;24.70;41.60;;;;;;5033418;28;20440;-46
2022/07/23 03:01:54;;;;;;;4.77;3.53;;;24.70;41.60;;;;;;5033306;28;20777;-45
2022/07/23 03:04:20;;;;;;;4.47;4.07;;;24.70;41.70;;;;;;5033233;28;20292;-45
2022/07/23 03:06:45;;;;;;;5.00;3.73;;;24.60;41.70;;;;;;5033010;28;20264;-44
2022/07/23 03:09:11;;;;;;;4.57;3.80;;;24.60;42.00;;;;;;5033219;28;20165;-45
2022/07/23 03:11:37;;;;;;;4.70;4.10;;;24.50;41.90;;;;;;5033071;28;20534;-45
2022/07/23 03:14:03;;;;;;;3.70;3.20;;;24.50;42.10;;;;;;5032428;28;20409;-46
2022/07/23 03:16:29;;;;;;;4.00;3.60;;;24.50;42.10;;;;;;5032677;28;20178;-46
2022/07/23 03:18:54;;;;;;;3.90;3.50;;;24.50;42.10;;;;;;5033269;28;20268;-45
2022/07/23 03:21:20;;;;;;;4.00;3.10;;;24.50;42.30;;;;;;5032996;28;20182;-45
2022/07/23 03:23:46;;;;;;;5.03;4.00;;;24.50;42.50;;;;;;5032848;28;20281;-45
2022/07/23 03:26:12;;;;;;;4.10;3.70;;;24.50;42.40;;;;;;5032496;28;20180;-44
2022/07/23 03:28:37;;;;;;;5.57;4.83;;;24.50;42.40;;;;;;5032687;28;20202;-45
2022/07/23 03:31:03;;;;;;;6.03;3.70;;;24.50;42.40;;;;;;5032692;28;20177;-45
2022/07/23 03:33:29;;;;;;;5.40;4.10;;;24.50;42.40;;;;;;5032740;28;20235;-45
2022/07/23 03:35:55;;;;;;;5.33;4.43;;;24.50;42.40;;;;;;5052465;23;20871;-50
2022/07/23 03:38:20;;;;;;;4.60;4.20;;;24.50;42.60;;;;;;5047061;28;20169;-49
2022/07/23 03:40:46;;;;;;;5.67;4.13;;;24.50;42.70;;;;;;5056939;28;20211;-51
2022/07/23 03:43:12;;;;;;;4.67;3.90;;;24.50;42.70;;;;;;5056912;28;20447;-49
2022/07/23 03:45:38;;;;;;;5.40;4.40;;;24.50;42.60;;;;;;5054024;28;20273;-49
2022/07/23 03:48:04;;;;;;;4.20;3.60;;;24.50;42.70;;;;;;5052387;28;20165;-49
2022/07/23 03:50:30;;;;;;;4.00;3.60;;;24.50;42.70;;;;;;5052403;28;20399;-49
2022/07/23 03:52:55;;;;;;;6.23;5.03;;;24.50;42.70;;;;;;5052295;28;20481;-49
2022/07/23 03:55:21;;;;;;;5.43;4.33;;;24.50;42.70;;;;;;5052084;28;20204;-50
2022/07/23 03:57:47;;;;;;;6.70;4.60;;;24.50;42.70;;;;;;5052096;28;20169;-48
2022/07/23 04:00:13;;;;;;;5.30;3.93;;;24.60;42.60;;;;;;5052221;28;20183;-49
2022/07/23 04:02:40;;;;;;;5.13;3.50;;;24.60;42.70;;;;;;5052151;28;20188;-49
2022/07/23 04:05:06;;;;;;;4.60;4.20;;;24.60;42.70;;;;;;5052102;28;20435;-50
2022/07/23 04:07:32;;;;;;;5.13;3.90;;;24.60;42.70;;;;;;5051898;28;20408;-49
2022/07/23 04:09:58;;;;;;;6.27;4.50;;;24.60;42.60;;;;;;5051964;28;20918;-48
2022/07/23 04:12:24;;;;;;;4.60;4.07;;;24.70;43.40;;;;;;5052049;28;20169;-49
2022/07/23 04:14:50;;;;;;;15.57;7.37;;;24.70;42.60;;;;;;5051996;28;20193;-48
2022/07/23 04:17:16;;;;;;;10.20;6.90;;;24.70;42.60;;;;;;5051765;28;20433;-49
2022/07/23 04:19:43;;;;;;;8.40;6.37;;;24.70;42.70;;;;;;5052037;28;20795;-49
2022/07/23 04:22:12;;;;;;;6.90;4.53;;;24.70;42.50;;;;;;5051969;28;20409;-49
2022/07/23 04:24:39;;;;;;;5.07;3.60;;;24.80;42.50;;;;;;5051695;28;20460;-48
2022/07/23 04:27:05;;;;;;;5.23;3.80;;;24.80;42.40;;;;;;5058237;28;20486;-49
2022/07/23 04:29:31;;;;;;;4.57;3.80;;;24.80;42.20;;;;;;5058560;28;20399;-49
2022/07/23 04:31:57;;;;;;;3.93;3.37;;;24.80;42.10;;;;;;5058605;28;20403;-48
2022/07/23 04:34:23;;;;;;;9.10;4.40;;;24.80;42.40;;;;;;5058710;28;20178;-48
2022/07/23 04:36:49;;;;;;;4.50;4.00;;;24.80;42.40;;;;;;5058167;28;20423;-50
2022/07/23 04:39:15;;;;;;;6.00;4.10;;;24.90;42.50;;;;;;5058345;28;20400;-49
2022/07/23 04:41:41;;;;;;;7.43;4.63;;;24.90;42.30;;;;;;5058423;28;20232;-50
2022/07/23 04:44:07;;;;;;;8.03;4.33;;;24.90;42.20;;;;;;5058288;28;20353;-49
2022/07/23 04:46:33;;;;;;;4.80;3.53;;;24.90;42.20;;;;;;5058141;28;20420;-49
2022/07/23 04:48:58;;;;;;;3.87;3.23;;;24.90;42.20;;;;;;5058407;28;20169;-48
2022/07/23 04:51:24;;;;;;;5.10;4.60;;;24.90;42.10;;;;;;5058359;28;20408;-50
2022/07/23 04:53:51;;;;;;;7.17;4.10;;;24.90;42.00;;;;;;5058246;28;20173;-48
2022/07/23 04:56:16;;;;;;;4.37;3.23;;;24.90;42.00;;;;;;5058253;28;20506;-49
2022/07/23 04:58:43;;;;;;;4.07;3.43;;;24.90;42.20;;;;;;5040693;28;20911;-50
2022/07/23 05:01:09;;;;;;;5.13;3.50;;;24.90;42.30;;;;;;5058326;28;20695;-49
2022/07/23 05:03:35;;;;;;;6.27;4.07;;;24.90;41.90;;;;;;5058221;28;20474;-50
2022/07/23 05:06:00;;;;;;;3.30;2.90;;;24.90;42.00;;;;;;5039956;28;20510;-49
2022/07/23 05:08:26;;;;;;;3.90;3.60;;;24.90;41.90;;;;;;5058191;28;20165;-49
2022/07/23 05:10:52;;;;;;;3.87;3.47;;;25.00;42.00;;;;;;5058169;28;20403;-48
2022/07/23 05:13:18;;;;;;;4.87;3.70;;;25.00;42.20;;;;;;5058195;28;20506;-49
2022/07/23 05:15:44;;;;;;;5.00;4.30;;;25.00;42.00;;;;;;5057863;28;20193;-50
2022/07/23 05:18:10;;;;;;;4.50;3.67;;;25.10;41.80;;;;;;5058106;28;20844;-49
2022/07/23 05:20:36;;;;;;;4.70;3.70;;;25.10;41.60;;;;;;5058164;28;20403;-49
2022/07/23 05:23:02;;;;;;;3.73;3.20;;;25.10;41.80;;;;;;5057919;28;20205;-48
2022/07/23 05:25:28;;;;;;;5.03;3.93;;;25.10;41.90;;;;;;5057932;28;20555;-49
2022/07/23 05:27:53;;;;;;;4.40;4.00;;;25.20;42.00;;;;;;5058149;28;20403;-49
2022/07/23 05:30:20;;;;;;;4.47;3.67;;;25.20;42.00;;;;;;5058055;28;20495;-48
2022/07/23 05:32:46;;;;;;;4.53;3.50;;;25.20;41.70;;;;;;5057945;28;20173;-49
2022/07/23 05:35:11;;;;;;;3.83;3.33;;;25.20;41.60;;;;;;5057752;28;20439;-49
2022/07/23 05:37:37;;;;;;;6.87;5.13;;;25.30;41.70;;;;;;5055062;28;20169;-49
2022/07/23 05:40:09;;;;;;;5.17;3.30;;;25.30;41.90;;;;;;5054813;28;20176;-49
2022/07/23 05:42:36;;;;;;;4.03;3.60;;;25.30;42.00;;;;;;5054888;28;20176;-50
2022/07/23 05:45:03;;;;;;;4.70;3.87;;;25.30;41.90;;;;;;5054575;28;20459;-49
2022/07/23 05:47:38;;;;;;;4.00;3.60;;;25.40;41.80;;;;;;5054481;28;20549;-50
2022/07/23 05:50:04;;;;;;;4.60;3.27;;;25.40;41.80;;;;;;5054579;28;20441;-49
2022/07/23 05:52:30;;;;;;;4.93;4.20;;;25.40;41.70;;;;;;5054889;28;20408;-50
2022/07/23 05:54:56;;;;;;;13.43;3.73;;;25.40;41.60;;;;;;5054827;28;20435;-49
2022/07/23 05:57:21;;;;;;;4.60;2.70;;;25.40;41.70;;;;;;5054553;28;20173;-49
2022/07/23 05:59:47;;;;;;;4.87;3.90;;;25.40;41.60;;;;;;5054901;28;20212;-48
2022/07/23 06:02:13;;;;;;;5.57;4.30;;;25.30;41.70;;;;;;5054326;28;20264;-49
2022/07/23 06:04:38;;;;;;;4.20;3.80;;;25.30;41.70;;;;;;5054179;28;20204;-49
2022/07/23 06:07:04;;;;;;;3.30;2.80;;;25.20;41.70;;;;;;5054020;28;20172;-50
2022/07/23 06:09:30;;;;;;;4.07;3.20;;;25.20;41.60;;;;;;5054541;28;20161;-49
2022/07/23 06:11:56;;;;;;;4.13;2.97;;;25.20;41.80;;;;;;5036597;28;20177;-49
2022/07/23 06:14:21;;;;;;;4.03;3.33;;;25.20;41.90;;;;;;5054112;28;20165;-49
2022/07/23 06:16:47;;;;;;;4.40;3.37;;;25.20;41.60;;;;;;5053973;28;20201;-49
2022/07/23 06:19:13;;;;;;;4.47;3.17;;;25.10;41.60;;;;;;5053952;28;20683;-49
2022/07/23 06:21:39;;;;;;;3.83;3.10;;;25.10;41.60;;;;;;5054048;28;20657;-49
2022/07/23 06:24:05;;;;;;;5.07;3.23;;;25.10;41.60;;;;;;5053883;28;20235;-50
2022/07/23 06:26:31;;;;;;;5.37;3.90;;;25.00;41.70;;;;;;5053640;28;20192;-49
2022/07/23 06:28:56;;;;;;;6.10;4.13;;;25.00;41.80;;;;;;5053887;28;20404;-49
2022/07/23 06:31:22;;;;;;;5.27;3.50;;;25.00;42.10;;;;;;5053787;28;20169;-48
2022/07/23 06:33:48;;;;;;;6.00;4.60;;;25.00;41.80;;;;;;5053695;28;20218;-49
2022/07/23 06:36:13;;;;;;;5.87;4.43;;;25.00;41.60;;;;;;5053263;28;20236;-48
2022/07/23 06:38:39;;;;;;;5.83;4.77;;;25.00;41.70;;;;;;5053672;28;20259;-49
2022/07/23 06:41:05;;;;;;;4.73;4.00;;;24.90;41.80;;;;;;5053592;28;20640;-48
2022/07/23 06:43:31;;;;;;;5.57;4.00;;;24.90;41.80;;;;;;5053601;28;20197;-49
2022/07/23 06:45:57;;;;;;;6.50;5.30;;;24.90;42.00;;;;;;5053221;28;20189;-48
2022/07/23 06:48:23;;;;;;;7.30;5.00;;;25.00;41.90;;;;;;5052708;28;20414;-48
2022/07/23 06:50:48;;;;;;;5.90;4.53;;;25.00;41.90;;;;;;5053199;28;20490;-49
2022/07/23 06:53:14;;;;;;;8.43;4.70;;;25.00;42.00;;;;;;5053352;28;20251;-49
2022/07/23 06:55:40;;;;;;;6.90;5.33;;;25.00;41.80;;;;;;5035487;28;20247;-50
2022/07/23 06:58:06;;;;;;;6.83;4.90;;;25.00;41.70;;;;;;5053527;28;20165;-50
2022/07/23 07:00:32;;;;;;;4.70;3.10;;;25.10;41.70;;;;;;5053276;28;20814;-49
2022/07/23 07:02:58;;;;;;;8.40;5.23;;;25.10;41.40;;;;;;5053001;28;20404;-49
2022/07/23 07:05:25;;;;;;;5.53;4.17;;;25.20;41.10;;;;;;5053068;28;20197;-50
2022/07/23 07:07:51;;;;;;;6.60;4.87;;;25.20;41.00;;;;;;5052801;28;20495;-49
2022/07/23 07:10:18;;;;;;;7.10;4.97;;;25.20;40.80;;;;;;5053038;28;20503;-48
2022/07/23 07:12:44;;;;;;;6.30;4.40;;;25.10;40.80;;;;;;5053058;28;20169;-49
2022/07/23 07:15:10;;;;;;;5.40;4.27;;;25.20;40.90;;;;;;5052908;28;20462;-50
2022/07/23 07:17:35;;;;;;;5.60;5.00;;;25.30;40.80;;;;;;5052728;28;20528;-49
2022/07/23 07:20:01;;;;;;;6.20;4.70;;;25.30;40.60;;;;;;5053072;28;20934;-49
2022/07/23 07:22:27;;;;;;;5.93;5.13;;;25.40;40.70;;;;;;5052804;28;20176;-50
2022/07/23 07:24:53;;;;;;;6.87;5.13;;;25.50;40.60;;;;;;5052774;28;20228;-49
2022/07/23 07:27:18;;;;;;;6.00;5.10;;;25.60;40.40;;;;;;5052552;28;20625;-48
2022/07/23 07:29:44;;;;;;;5.00;3.90;;;25.60;40.10;;;;;;5052720;28;20184;-49
2022/07/23 07:32:10;;;;;;;6.57;4.40;;;25.60;40.00;;;;;;5052673;28;20524;-49
2022/07/23 07:34:36;;;;;;;4.67;4.10;;;25.70;39.90;;;;;;5052424;28;20192;-49
2022/07/23 07:37:01;;;;;;;5.40;4.03;;;25.70;39.60;;;;;;5052462;28;20256;-48
2022/07/23 07:39:27;;;;;;;5.60;4.30;;;25.60;39.60;;;;;;5052549;28;20173;-48
2022/07/23 07:41:53;;;;;;;6.13;4.60;;;25.60;39.60;;;;;;5052461;28;20174;-48
2022/07/23 07:44:19;;;;;;;5.60;4.40;;;25.70;39.70;;;;;;5052285;28;20878;-48
2022/07/23 07:46:45;;;;;;;4.77;3.80;;;25.80;39.70;;;;;;5052120;28;20227;-48
2022/07/23 07:49:10;;;;;;;6.10;4.67;;;25.90;39.80;;;;;;5052345;28;20193;-50
2022/07/23 07:51:36;;;;;;;5.83;5.07;;;26.00;40.50;;;;;;5052514;28;20633;-50
2022/07/23 07:54:02;;;;;;;7.50;4.20;;;26.20;39.90;;;;;;5052220;28;20886;-49
2022/07/23 07:56:28;;;;;;;4.40;3.97;;;26.40;40.00;;;;;;5051922;28;20235;-49
2022/07/23 07:58:53;;;;;;;7.33;4.60;;;26.60;39.60;;;;;;5052129;28;20473;-50
2022/07/23 08:01:19;;;;;;;6.97;4.07;;;26.70;39.30;;;;;;5051681;28;20181;-49
2022/07/23 08:03:46;;;;;;;6.43;5.07;;;26.80;38.90;;;;;;5051900;28;20201;-50
2022/07/23 08:06:12;;;;;;;5.17;3.97;;;27.00;39.40;;;;;;5051774;28;20200;-48
2022/07/23 08:08:37;;;;;;;6.70;4.60;;;27.10;39.00;;;;;;5052069;28;20412;-49
2022/07/23 08:11:03;;;;;;;5.90;4.73;;;27.10;38.90;;;;;;5034105;28;20234;-48
2022/07/23 08:13:29;;;;;;;4.70;4.20;;;27.20;38.70;;;;;;5052019;28;20177;-49
2022/07/23 08:15:55;;;;;;;4.00;3.60;;;27.20;38.50;;;;;;5051645;28;20428;-49
2022/07/23 08:18:21;;;;;;;5.50;3.73;;;27.30;38.50;;;;;;5052261;28;20204;-48
2022/07/23 08:20:46;;;;;;;5.23;4.07;;;27.30;38.30;;;;;;5051906;28;20244;-49
2022/07/23 08:23:12;;;;;;;6.43;3.70;;;27.40;38.00;;;;;;5051812;28;20207;-49
2022/07/23 08:25:41;;;;;;;4.70;4.10;;;27.40;38.00;;;;;;5051536;28;20220;-49
2022/07/23 08:28:10;;;;;;;4.70;4.20;;;27.50;37.80;;;;;;5052992;28;20193;-48
2022/07/23 08:30:37;;;;;;;4.23;3.77;;;27.50;38.00;;;;;;5053019;28;20479;-50
2022/07/23 08:33:06;;;;;;;4.70;3.90;;;27.60;38.10;;;;;;5053214;28;20411;-48
2022/07/23 08:35:37;;;;;;;4.70;3.80;;;27.70;38.10;;;;;;5052734;28;20451;-49
2022/07/23 08:38:05;;;;;;;4.87;4.20;;;27.80;37.80;;;;;;5035461;28;20416;-48
2022/07/23 08:40:37;;;;;;;4.10;3.20;;;27.80;37.50;;;;;;5053058;28;20396;-49
2022/07/23 08:43:26;;;;;;;4.87;3.70;;;27.90;37.50;;;;;;5054118;28;20751;-48
2022/07/23 08:45:56;;;;;;;5.20;3.27;;;27.90;37.50;;;;;;5052934;28;20420;-49
2022/07/23 08:48:25;;;;;;;6.90;4.67;;;28.00;37.90;;;;;;5053190;28;20458;-48
2022/07/23 08:50:56;;;;;;;5.67;4.47;;;28.00;37.70;;;;;;5053318;28;20460;-49
2022/07/23 08:53:23;;;;;;;4.17;3.77;;;28.00;37.50;;;;;;5053456;28;20419;-47
2022/07/23 08:55:52;;;;;;;4.40;3.30;;;28.00;37.10;;;;;;5053203;28;20562;-49
2022/07/23 08:58:19;;;;;;;4.67;4.00;;;28.00;37.00;;;;;;5053424;28;20435;-48
2022/07/23 09:00:46;;;;;;;5.90;4.43;;;28.10;37.10;;;;;;5053223;28;20922;-49
2022/07/23 09:03:23;;;;;;;4.03;3.27;;;28.20;37.30;;;;;;5053375;28;20459;-48
2022/07/23 09:05:51;;;;;;;4.03;3.23;;;28.30;37.40;;;;;;5053822;28;20649;-49
2022/07/23 09:08:24;;;;;;;4.73;3.70;;;28.40;37.10;;;;;;5054980;28;20938;-49
2022/07/23 09:10:59;;;;;;;5.33;3.77;;;28.50;37.30;;;;;;5037529;28;20411;-48
2022/07/23 09:13:35;;;;;;;7.13;3.77;;;28.60;36.70;;;;;;5057914;28;20403;-48
2022/07/23 09:16:07;;;;;;;4.33;3.93;;;28.60;36.70;;;;;;5040307;28;20451;-49
2022/07/23 09:18:39;;;;;;;5.47;4.17;;;28.60;36.60;;;;;;5059156;28;20395;-49
2022/07/23 09:21:15;;;;;;;5.30;4.47;;;28.60;37.00;;;;;;5040952;28;20414;-49
2022/07/23 09:23:53;;;;;;;4.40;4.00;;;28.70;36.30;;;;;;5057556;28;20826;-49
2022/07/23 09:26:21;;;;;;;5.20;4.17;;;28.60;36.00;;;;;;5058646;28;20416;-49
2022/07/23 09:28:55;;;;;;;7.93;4.80;;;28.60;36.00;;;;;;5057198;28;20396;-48
2022/07/23 09:31:23;;;;;;;4.83;4.37;;;28.80;36.70;;;;;;5058628;28;20410;-48
2022/07/23 09:33:49;;;;;;;5.27;4.77;;;28.80;36.70;;;;;;5039863;28;20412;-49
2022/07/23 09:36:22;;;;;;;4.70;4.17;;;28.90;36.30;;;;;;5057282;28;20440;-49
2022/07/23 09:38:51;;;;;;;6.80;5.70;;;29.00;36.90;;;;;;5056979;28;20473;-49
2022/07/23 09:41:17;;;;;;;5.00;4.50;;;29.00;36.60;;;;;;5039648;28;20446;-49
2022/07/23 09:43:43;;;;;;;5.33;4.00;;;29.00;36.00;;;;;;5055890;28;20475;-50
2022/07/23 09:46:24;;;;;;;6.17;4.90;;;29.00;36.40;;;;;;5054971;28;20420;-50
2022/07/23 09:48:56;;;;;;;5.10;4.10;;;29.00;36.40;;;;;;5036781;28;20791;-50
2022/07/23 09:53:54;;;;;;;5.33;4.83;;;29.00;35.90;;;;;;5026409;28;20509;-45
2022/07/23 09:56:21;;;;;;;5.27;4.60;;;29.00;36.30;;;;;;5034266;28;20487;-47
2022/07/23 09:59:02;;;;;;;6.10;4.70;;;29.00;36.40;;;;;;5034414;28;20177;-45
2022/07/23 10:01:29;;;;;;;5.13;4.63;;;29.10;36.30;;;;;;5034327;28;20452;-46
2022/07/23 10:03:55;;;;;;;5.10;4.60;;;29.20;36.10;;;;;;5034228;28;20488;-46
2022/07/23 10:06:21;;;;;;;6.30;4.30;;;29.30;35.80;;;;;;5034400;28;20407;-47
2022/07/23 10:08:50;;;;;;;6.27;5.00;;;29.20;35.30;;;;;;5034337;28;20420;-45
2022/07/23 10:11:16;;;;;;;5.30;4.27;;;29.20;35.60;;;;;;5034048;28;20514;-46
2022/07/23 10:13:50;;;;;;;4.70;4.00;;;29.20;35.30;;;;;;5034142;28;20405;-44
2022/07/23 10:16:16;;;;;;;5.47;4.97;;;29.20;35.40;;;;;;5033851;28;20416;-46
2022/07/23 10:18:43;;;;;;;7.03;5.30;;;29.20;35.50;;;;;;5033970;28;20412;-45
2022/07/23 10:21:09;;;;;;;5.17;4.67;;;29.30;35.60;;;;;;5033826;28;20190;-45
2022/07/23 10:23:43;;;;;;;6.67;5.03;;;29.30;35.80;;;;;;5033854;28;20954;-45
2022/07/23 10:27:09;;;;;;;5.20;4.30;;;29.40;35.60;;;;;;5034059;28;20389;-44
2022/07/23 10:29:46;;;;;;;7.27;5.30;;;29.50;35.30;;;;;;4962913;28;20910;-46
2022/07/23 10:32:48;;;;;;;5.60;4.40;;;29.50;35.10;;;;;;5033723;28;20814;-47
2022/07/23 10:35:25;;;;;;;5.10;4.60;;;29.70;35.70;;;;;;5034459;28;20397;-46
2022/07/23 10:38:07;;;;;;;5.47;4.80;;;29.80;35.60;;;;;;5034403;28;20420;-47
2022/07/23 10:40:33;;;;;;;5.53;4.17;;;30.10;35.70;;;;;;5034689;28;20397;-45
2022/07/23 10:43:01;;;;;;;8.40;4.50;;;30.10;34.70;;;;;;5034164;28;20432;-45
2022/07/23 10:45:36;;;;;;;5.00;4.07;;;30.20;35.00;;;;;;5034630;28;20178;-45
2022/07/23 10:48:22;;;;;;;5.00;4.60;;;30.30;34.50;;;;;;5034150;28;20979;-45
2022/07/23 10:51:11;;;;;;;4.70;4.17;;;30.50;34.40;;;;;;5034238;28;20401;-45
2022/07/23 10:53:52;;;;;;;11.63;4.33;;;30.50;34.50;;;;;;5034014;28;20448;-45
2022/07/23 10:56:49;;;;;;;3.83;3.43;;;30.50;34.50;;;;;;5034011;28;20486;-46
2022/07/23 10:59:15;;;;;;;4.93;4.27;;;30.60;33.80;;;;;;5034646;28;20389;-45
2022/07/23 11:01:41;;;;;;;4.90;4.10;;;30.60;34.20;;;;;;5033368;28;21002;-47
2022/07/23 11:04:10;;;;;;;5.07;4.43;;;30.70;34.10;;;;;;5033220;28;20220;-47
2022/07/23 11:07:02;;;;;;;5.03;4.53;;;30.80;33.90;;;;;;5033376;28;20629;-47
2022/07/23 11:09:41;;;;;;;5.20;4.47;;;31.00;33.90;;;;;;5028648;28;20424;-46
2022/07/23 11:12:13;;;;;;;6.40;4.07;;;31.00;33.80;;;;;;5033015;28;20460;-47
2022/07/23 11:14:57;;;;;;;5.10;4.53;;;30.90;33.10;;;;;;5033286;28;20499;-45
2022/07/23 11:17:24;;;;;;;7.80;4.27;;;30.90;33.20;;;;;;5032895;28;20404;-46
2022/07/23 11:20:09;;;;;;;5.80;4.97;;;30.90;33.30;;;;;;5033042;28;20408;-45
2022/07/23 11:22:48;;;;;;;5.20;4.10;;;30.90;33.60;;;;;;5032833;28;20944;-46
2022/07/23 11:25:30;;;;;;;4.70;4.03;;;30.90;33.50;;;;;;5032801;28;20506;-46
2022/07/23 11:28:11;;;;;;;4.90;3.67;;;30.90;33.50;;;;;;5032738;28;20459;-46
2022/07/23 11:30:40;;;;;;;5.30;3.90;;;30.90;33.10;;;;;;5032958;28;20442;-47
2022/07/23 11:33:12;;;;;;;4.67;3.70;;;30.80;33.20;;;;;;5032907;28;20416;-46
2022/07/23 11:35:41;;;;;;;6.20;4.13;;;30.60;33.50;;;;;;5031745;28;20443;-46
2022/07/23 11:38:16;;;;;;;5.03;4.30;;;30.50;33.80;;;;;;5032647;28;20441;-45
2022/07/23 11:40:44;;;;;;;7.13;5.03;;;30.50;33.90;;;;;;5032648;28;20892;-44
2022/07/23 11:43:11;;;;;;;5.70;4.40;;;30.20;33.90;;;;;;5032495;28;20404;-46
2022/07/23 11:45:50;;;;;;;5.70;5.00;;;30.10;34.20;;;;;;5032308;28;20467;-47
2022/07/23 11:48:24;;;;;;;5.40;4.13;;;29.90;33.80;;;;;;5032464;28;20921;-45
2022/07/23 11:50:52;;;;;;;3.93;3.53;;;29.80;34.00;;;;;;5032221;28;21011;-46
2022/07/23 11:53:26;;;;;;;5.13;3.73;;;29.70;34.30;;;;;;5032475;28;20401;-47
2022/07/23 11:55:52;;;;;;;4.43;3.70;;;29.60;34.70;;;;;;5032214;28;20427;-45
2022/07/23 11:58:18;;;;;;;6.60;4.80;;;29.50;35.00;;;;;;5032560;28;20413;-46
2022/07/23 12:00:44;;;;;;;6.83;4.93;;;29.50;34.80;;;;;;5032160;28;20416;-46
2022/07/23 12:03:10;;;;;;;5.53;4.83;;;29.50;35.80;;;;;;5032342;28;20492;-45
2022/07/23 12:05:38;;;;;;;7.83;5.47;;;29.50;35.30;;;;;;5032134;28;20415;-45
2022/07/23 12:08:06;;;;;;;5.43;4.90;;;29.40;35.30;;;;;;5032269;28;20166;-46
2022/07/23 12:10:43;;;;;;;5.50;4.93;;;29.30;36.10;;;;;;5032054;28;20404;-45
2022/07/23 12:13:18;;;;;;;7.53;5.20;;;29.30;35.60;;;;;;5032459;28;20396;-46
2022/07/23 12:15:50;;;;;;;7.63;5.20;;;29.10;35.50;;;;;;5031893;28;21017;-46
2022/07/23 12:18:22;;;;;;;6.60;4.40;;;29.00;35.50;;;;;;5032308;28;20412;-47
2022/07/23 12:20:53;;;;;;;6.57;4.70;;;28.80;35.50;;;;;;5014332;28;20408;-45
2022/07/23 12:23:21;;;;;;;5.50;4.40;;;28.60;35.90;;;;;;5032054;28;20445;-45
2022/07/23 12:25:49;;;;;;;6.50;5.30;;;28.50;36.50;;;;;;5031745;28;20542;-45
2022/07/23 12:28:20;;;;;;;6.07;5.47;;;28.50;36.30;;;;;;5031948;28;20411;-47
2022/07/23 12:30:51;;;;;;;5.10;4.60;;;28.50;36.50;;;;;;5031971;28;20413;-46
2022/07/23 12:33:32;;;;;;;5.50;4.67;;;28.50;36.40;;;;;;5031937;28;20776;-46
2022/07/23 12:36:01;;;;;;;5.80;4.80;;;28.50;36.60;;;;;;5031989;28;20904;-44
2022/07/23 12:38:35;;;;;;;17.43;5.17;;;28.60;37.00;;;;;;5031668;28;20939;-46
2022/07/23 12:41:01;;;;;;;6.00;4.40;;;28.80;36.90;;;;;;5031678;28;20434;-45
2022/07/23 12:43:32;;;;;;;4.50;4.10;;;28.90;36.70;;;;;;5031955;28;20444;-46
2022/07/23 12:46:18;;;;;;;6.47;5.83;;;29.10;36.70;;;;;;5032037;28;20171;-46
2022/07/23 12:48:49;;;;;;;5.20;4.00;;;29.20;36.40;;;;;;5035917;28;20455;-45
2022/07/23 12:51:26;;;;;;;5.67;5.17;;;29.30;36.30;;;;;;5035799;28;20531;-45
2022/07/23 12:53:58;;;;;;;4.90;4.40;;;29.30;36.10;;;;;;5035997;28;20388;-45